createdAt,value
2019-03-29T00:01:04.204Z,9.59
2019-03-29T00:03:54.909Z,9.75
2019-03-29T00:06:45.879Z,9.70
2019-03-29T00:09:37.669Z,9.72
2019-03-29T00:12:28.606Z,9.58
2019-03-29T00:15:19.821Z,9.67
2019-03-29T00:18:10.823Z,9.71
2019-03-29T00:21:01.769Z,9.69
2019-03-29T00:24:05.963Z,9.67
2019-03-29T00:26:45.061Z,9.66
2019-03-29T00:29:37.039Z,9.67
2019-03-29T00:32:28.070Z,9.68
2019-03-29T00:35:18.835Z,9.63
2019-03-29T00:38:10.682Z,9.68
2019-03-29T00:41:01.492Z,9.69
2019-03-29T00:43:52.530Z,9.63
2019-03-29T00:46:43.188Z,9.63
2019-03-29T00:49:34.130Z,9.63
2019-03-29T00:52:24.856Z,9.61
2019-03-29T00:55:15.813Z,9.60
2019-03-29T00:58:06.695Z,9.60
2019-03-29T01:00:57.595Z,9.62
2019-03-29T01:03:48.555Z,9.60
2019-03-29T01:06:39.643Z,9.62
2019-03-29T01:09:30.883Z,9.56
2019-03-29T01:12:22.057Z,9.54
2019-03-29T01:15:12.758Z,9.56
2019-03-29T01:18:03.426Z,9.55
2019-03-29T01:20:54.202Z,9.54
2019-03-29T01:23:45.116Z,9.55
2019-03-29T01:26:36.777Z,9.50
2019-03-29T01:29:27.599Z,9.52
2019-03-29T01:32:18.337Z,9.50
2019-03-29T01:35:09.320Z,9.46
2019-03-29T01:38:00.397Z,9.43
2019-03-29T01:40:52.451Z,9.44
2019-03-29T01:43:43.093Z,9.45
2019-03-29T01:46:33.898Z,9.44
2019-03-29T01:49:24.715Z,9.46
2019-03-29T01:52:15.374Z,9.47
2019-03-29T01:55:06.232Z,9.45
2019-03-29T01:57:58.313Z,9.43
2019-03-29T02:00:49.694Z,9.47
2019-03-29T02:03:40.668Z,9.47
2019-03-29T02:06:31.699Z,9.43
2019-03-29T02:09:22.771Z,9.41
2019-03-29T02:12:13.728Z,9.39
2019-03-29T02:15:04.727Z,9.39
2019-03-29T02:17:56.597Z,9.38
2019-03-29T02:20:47.449Z,9.36
2019-03-29T02:23:38.241Z,9.40
2019-03-29T02:26:28.889Z,9.38
2019-03-29T02:29:20.705Z,9.39
2019-03-29T02:32:12.649Z,9.35
2019-03-29T02:35:03.476Z,9.37
2019-03-29T02:37:54.384Z,9.37
2019-03-29T02:40:45.150Z,9.32
2019-03-29T02:43:36.033Z,9.31
2019-03-29T02:46:26.842Z,9.33
2019-03-29T02:49:17.780Z,9.30
2019-03-29T02:52:08.424Z,9.30
2019-03-29T02:54:59.437Z,9.27
2019-03-29T02:57:50.208Z,9.29
2019-03-29T03:00:41.271Z,9.28
2019-03-29T03:03:33.512Z,9.26
2019-03-29T03:06:24.556Z,9.26
2019-03-29T03:09:15.475Z,9.26
2019-03-29T03:12:06.352Z,9.24
2019-03-29T03:14:57.299Z,9.18
2019-03-29T03:17:48.102Z,9.19
2019-03-29T03:20:38.940Z,9.18
2019-03-29T03:23:30.247Z,9.17
2019-03-29T03:26:20.759Z,9.18
2019-03-29T03:29:11.742Z,9.16
2019-03-29T03:32:02.442Z,9.16
2019-03-29T03:34:53.502Z,9.13
2019-03-29T03:37:44.058Z,9.09
2019-03-29T03:40:35.029Z,9.10
2019-03-29T03:43:25.843Z,9.09
2019-03-29T03:46:16.886Z,9.10
2019-03-29T03:49:07.901Z,9.09
2019-03-29T03:51:59.284Z,9.11
2019-03-29T03:54:50.438Z,9.09
2019-03-29T03:57:41.505Z,9.09
2019-03-29T04:00:49.261Z,9.09
2019-03-29T04:03:39.893Z,9.08
2019-03-29T04:06:30.716Z,9.05
2019-03-29T04:09:21.658Z,9.08
2019-03-29T04:12:12.486Z,9.03
2019-03-29T04:15:03.317Z,8.98
2019-03-29T04:17:54.158Z,8.96
2019-03-29T04:20:45.227Z,8.99
2019-03-29T04:23:36.300Z,8.94
2019-03-29T04:26:27.250Z,8.92
2019-03-29T04:29:18.115Z,8.95
2019-03-29T04:32:09.075Z,8.96
2019-03-29T04:34:59.885Z,8.91
2019-03-29T04:37:50.871Z,8.95
2019-03-29T04:40:41.832Z,8.97
2019-03-29T04:43:32.884Z,8.96
2019-03-29T04:46:23.815Z,8.98
2019-03-29T04:49:14.861Z,8.95
2019-03-29T04:52:05.463Z,9.03
2019-03-29T04:54:56.272Z,9.01
2019-03-29T04:57:47.256Z,9.03
2019-03-29T05:00:38.156Z,9.16
2019-03-29T05:03:28.909Z,9.23
2019-03-29T05:06:19.795Z,9.29
2019-03-29T05:09:10.743Z,9.48
2019-03-29T05:12:01.677Z,9.63
2019-03-29T05:14:52.490Z,9.74
2019-03-29T05:17:43.244Z,9.99
2019-03-29T05:20:34.065Z,9.97
2019-03-29T05:23:25.023Z,10.42
2019-03-29T05:26:16.084Z,10.91
2019-03-29T05:29:07.083Z,11.43
2019-03-29T05:31:58.098Z,11.70
2019-03-29T05:34:48.910Z,11.72
2019-03-29T05:37:39.461Z,11.86
2019-03-29T05:40:35.202Z,12.08
2019-03-29T05:43:22.507Z,12.29
2019-03-29T05:46:13.441Z,12.74
2019-03-29T05:49:04.341Z,12.69
2019-03-29T05:51:55.364Z,12.77
2019-03-29T05:54:46.338Z,12.56
2019-03-29T05:57:37.547Z,13.09
2019-03-29T06:00:28.497Z,13.25
2019-03-29T06:03:21.235Z,13.29
2019-03-29T06:06:12.188Z,13.58
2019-03-29T06:09:03.429Z,14.09
2019-03-29T06:11:54.307Z,13.92
2019-03-29T06:14:45.660Z,13.78
2019-03-29T06:17:48.068Z,13.64
2019-03-29T06:20:28.667Z,13.97
2019-03-29T06:23:19.629Z,14.55
2019-03-29T06:26:10.379Z,14.56
2019-03-29T06:29:01.282Z,14.18
2019-03-29T06:31:52.323Z,14.69
2019-03-29T06:34:43.190Z,15.10
2019-03-29T06:37:33.857Z,15.34
2019-03-29T06:40:26.949Z,14.70
2019-03-29T06:43:17.915Z,14.97
2019-03-29T06:46:08.710Z,14.63
2019-03-29T06:48:59.631Z,15.18
2019-03-29T06:51:50.351Z,14.91
2019-03-29T06:54:41.239Z,15.41
2019-03-29T06:57:31.756Z,15.71
2019-03-29T07:00:23.018Z,16.01
2019-03-29T07:03:13.985Z,16.28
2019-03-29T07:06:05.028Z,16.08
2019-03-29T07:08:56.028Z,15.81
2019-03-29T07:11:47.027Z,16.48
2019-03-29T07:14:37.870Z,16.41
2019-03-29T07:17:28.756Z,16.64
2019-03-29T07:20:19.743Z,16.06
2019-03-29T07:23:11.411Z,16.55
2019-03-29T07:26:02.182Z,16.58
2019-03-29T07:28:53.230Z,16.45
2019-03-29T07:31:45.298Z,15.10
2019-03-29T07:34:36.344Z,14.28
2019-03-29T07:37:27.029Z,14.49
2019-03-29T07:40:18.258Z,14.28
2019-03-29T07:43:09.065Z,13.84
2019-03-29T07:46:00.078Z,13.72
2019-03-29T07:48:50.830Z,14.30
2019-03-29T07:51:41.761Z,14.12
2019-03-29T07:54:32.806Z,14.08
2019-03-29T07:57:23.834Z,13.39
2019-03-29T08:00:14.358Z,13.22
2019-03-29T08:03:05.215Z,13.13
2019-03-29T08:05:55.854Z,13.38
2019-03-29T08:08:46.856Z,14.02
2019-03-29T08:11:46.181Z,13.68
2019-03-29T08:14:30.363Z,13.73
2019-03-29T08:17:21.304Z,13.88
2019-03-29T08:20:38.209Z,13.27
2019-03-29T08:23:04.983Z,12.98
2019-03-29T08:25:56.249Z,12.58
2019-03-29T08:28:47.114Z,12.27
2019-03-29T08:31:38.045Z,12.08
2019-03-29T08:34:28.995Z,12.27
2019-03-29T08:37:19.982Z,12.92
2019-03-29T08:40:10.862Z,13.07
2019-03-29T08:43:01.885Z,13.25
2019-03-29T08:45:52.731Z,12.91
2019-03-29T08:48:43.681Z,13.19
2019-03-29T08:51:34.546Z,12.93
2019-03-29T08:54:25.370Z,12.79
2019-03-29T08:57:16.317Z,13.02
2019-03-29T09:00:07.519Z,13.35
2019-03-29T09:02:58.298Z,13.80
2019-03-29T09:05:49.341Z,14.75
2019-03-29T09:08:39.994Z,15.62
2019-03-29T09:11:30.990Z,15.01
2019-03-29T09:14:22.020Z,15.18
2019-03-29T09:17:13.133Z,15.44
2019-03-29T09:20:04.155Z,15.19
2019-03-29T09:22:55.393Z,14.51
2019-03-29T09:25:46.330Z,14.68
2019-03-29T09:28:38.345Z,14.56
2019-03-29T09:31:29.213Z,14.16
2019-03-29T09:34:20.110Z,13.54
2019-03-29T09:37:11.067Z,13.52
2019-03-29T09:40:01.854Z,13.64
2019-03-29T09:43:06.756Z,13.75
2019-03-29T09:45:45.082Z,14.03
2019-03-29T09:48:35.961Z,13.88
2019-03-29T09:51:27.219Z,13.65
2019-03-29T09:54:20.391Z,13.51
2019-03-29T09:57:14.999Z,13.50
2019-03-29T10:00:02.635Z,13.67
2019-03-29T10:02:53.670Z,13.66
2019-03-29T10:05:44.184Z,13.86
2019-03-29T10:08:35.222Z,13.89
2019-03-29T10:11:26.704Z,13.70
2019-03-29T10:14:17.621Z,13.75
2019-03-29T10:17:08.579Z,13.84
2019-03-29T10:20:00.650Z,13.98
2019-03-29T10:22:51.427Z,13.95
2019-03-29T10:25:42.384Z,14.05
2019-03-29T10:28:33.350Z,13.82
2019-03-29T10:31:32.078Z,13.58
2019-03-29T10:34:16.699Z,13.57
2019-03-29T10:37:07.663Z,13.61
2019-03-29T10:39:58.465Z,13.76
2019-03-29T10:42:57.538Z,13.45
2019-03-29T10:45:41.599Z,13.28
2019-03-29T10:48:32.822Z,13.24
2019-03-29T10:51:23.655Z,13.36
2019-03-29T10:54:15.555Z,13.40
2019-03-29T10:57:06.442Z,13.23
2019-03-29T10:59:57.441Z,13.18
2019-03-29T11:02:49.023Z,13.18
2019-03-29T11:05:40.193Z,13.09
2019-03-29T11:08:31.064Z,12.86
2019-03-29T11:11:22.213Z,13.05
2019-03-29T11:14:13.057Z,13.14
2019-03-29T11:17:03.951Z,13.08
2019-03-29T11:19:54.883Z,13.12
2019-03-29T11:22:46.121Z,13.14
2019-03-29T11:25:37.113Z,12.80
2019-03-29T11:28:28.534Z,12.86
2019-03-29T11:31:19.474Z,12.82
2019-03-29T11:34:10.637Z,13.07
2019-03-29T11:37:02.805Z,12.95
2019-03-29T11:39:53.812Z,12.88
2019-03-29T11:42:44.668Z,12.95
2019-03-29T11:45:35.554Z,13.04
2019-03-29T11:48:29.348Z,13.12
2019-03-29T11:51:20.062Z,12.98
2019-03-29T11:54:10.863Z,13.04
2019-03-29T11:57:01.708Z,13.13
2019-03-29T11:59:52.648Z,13.08
2019-03-29T12:02:43.580Z,12.95
2019-03-29T12:05:36.256Z,13.14
2019-03-29T12:08:27.243Z,12.94
2019-03-29T12:11:18.115Z,13.01
2019-03-29T12:14:09.178Z,13.22
2019-03-29T12:17:00.133Z,13.03
2019-03-29T12:19:52.113Z,13.13
2019-03-29T12:22:42.734Z,13.14
2019-03-29T12:25:33.537Z,13.07
2019-03-29T12:28:24.413Z,13.18
2019-03-29T12:31:15.482Z,13.26
2019-03-29T12:34:06.470Z,13.13
2019-03-29T12:36:57.972Z,13.21
2019-03-29T12:39:49.006Z,13.07
2019-03-29T12:42:40.112Z,13.08
2019-03-29T12:45:31.078Z,13.24
2019-03-29T12:48:21.767Z,13.24
2019-03-29T12:51:12.529Z,13.12
2019-03-29T12:54:03.505Z,13.37
2019-03-29T12:56:54.192Z,13.42
2019-03-29T12:59:45.047Z,13.16
2019-03-29T13:02:35.959Z,13.18
2019-03-29T13:05:26.978Z,13.09
2019-03-29T13:08:18.778Z,13.07
2019-03-29T13:11:09.700Z,12.90
2019-03-29T13:14:10.297Z,13.10
2019-03-29T13:16:54.083Z,13.24
2019-03-29T13:19:44.745Z,13.32
2019-03-29T13:22:35.598Z,13.26
2019-03-29T13:25:27.563Z,13.32
2019-03-29T13:28:18.622Z,13.32
2019-03-29T13:31:09.296Z,13.20
2019-03-29T13:34:00.025Z,13.13
2019-03-29T13:36:51.893Z,13.02
2019-03-29T13:39:43.579Z,13.09
2019-03-29T13:42:34.691Z,13.18
2019-03-29T13:45:27.908Z,13.17
2019-03-29T13:48:18.466Z,13.10
2019-03-29T13:51:09.608Z,13.26
2019-03-29T13:54:00.558Z,13.16
2019-03-29T13:56:51.331Z,13.15
2019-03-29T13:59:41.997Z,13.13
2019-03-29T14:02:33.028Z,13.14
2019-03-29T14:05:23.912Z,13.18
2019-03-29T14:08:14.551Z,13.19
2019-03-29T14:11:05.510Z,13.15
2019-03-29T14:13:56.518Z,13.23
2019-03-29T14:16:47.416Z,13.23
2019-03-29T14:19:38.470Z,13.25
2019-03-29T14:22:29.126Z,13.21
2019-03-29T14:25:20.248Z,13.21
2019-03-29T14:28:11.328Z,13.20
2019-03-29T14:31:02.493Z,13.23
2019-03-29T14:33:53.658Z,13.18
2019-03-29T14:36:45.788Z,13.22
2019-03-29T14:39:36.941Z,13.08
2019-03-29T14:42:27.992Z,13.12
2019-03-29T14:45:18.629Z,13.16
2019-03-29T14:48:09.547Z,13.07
2019-03-29T14:51:00.565Z,13.18
2019-03-29T14:53:51.838Z,13.15
2019-03-29T14:56:42.638Z,13.12
2019-03-29T14:59:33.544Z,13.08
2019-03-29T15:02:24.367Z,13.10
2019-03-29T15:05:15.333Z,13.18
2019-03-29T15:08:06.167Z,13.21
2019-03-29T15:10:57.075Z,13.20
2019-03-29T15:13:47.993Z,13.05
2019-03-29T15:16:38.733Z,13.00
2019-03-29T15:19:29.607Z,12.97
2019-03-29T15:22:20.587Z,12.96
2019-03-29T15:25:13.175Z,12.96
2019-03-29T15:28:07.020Z,12.98
2019-03-29T15:30:57.930Z,12.91
2019-03-29T15:33:48.986Z,12.86
2019-03-29T15:36:39.808Z,12.82
2019-03-29T15:39:30.875Z,12.83
2019-03-29T15:42:22.464Z,12.83
2019-03-29T15:45:20.213Z,12.77
2019-03-29T15:48:06.065Z,12.82
2019-03-29T15:50:57.292Z,12.70
2019-03-29T15:53:48.363Z,12.65
2019-03-29T15:56:39.338Z,12.60
2019-03-29T15:59:30.206Z,12.61
2019-03-29T16:02:21.186Z,12.53
2019-03-29T16:05:12.033Z,12.46
2019-03-29T16:08:03.016Z,12.45
2019-03-29T16:10:53.796Z,12.38
2019-03-29T16:13:45.209Z,12.35
2019-03-29T16:16:36.115Z,12.34
2019-03-29T16:19:27.080Z,12.36
2019-03-29T16:22:17.926Z,12.31
2019-03-29T16:25:08.999Z,12.28
2019-03-29T16:27:59.573Z,12.23
2019-03-29T16:30:51.395Z,12.22
2019-03-29T16:33:42.359Z,12.15
2019-03-29T16:36:33.302Z,12.10
2019-03-29T16:39:24.356Z,12.06
2019-03-29T16:42:15.468Z,12.02
2019-03-29T16:45:06.434Z,11.97
2019-03-29T16:47:58.846Z,11.96
2019-03-29T16:50:49.754Z,11.85
2019-03-29T16:53:41.063Z,11.92
2019-03-29T16:56:31.953Z,11.89
2019-03-29T16:59:22.716Z,11.88
2019-03-29T17:02:13.570Z,11.88
2019-03-29T17:05:04.287Z,11.85
2019-03-29T17:07:55.214Z,11.84
2019-03-29T17:10:46.090Z,11.87
2019-03-29T17:13:36.878Z,11.82
2019-03-29T17:16:30.555Z,11.86
2019-03-29T17:19:19.987Z,11.84
2019-03-29T17:22:10.790Z,11.80
2019-03-29T17:25:01.591Z,11.81
2019-03-29T17:27:52.502Z,11.79
2019-03-29T17:31:04.760Z,11.78
2019-03-29T17:33:56.891Z,11.82
2019-03-29T17:36:47.734Z,11.78
2019-03-29T17:39:38.622Z,11.74
2019-03-29T17:42:29.387Z,11.68
2019-03-29T17:45:20.239Z,11.63
2019-03-29T17:48:11.239Z,11.51
2019-03-29T17:51:02.009Z,11.65
2019-03-29T17:53:52.778Z,11.61
2019-03-29T17:56:44.151Z,11.64
2019-03-29T17:59:35.204Z,11.60
2019-03-29T18:02:26.476Z,11.62
2019-03-29T18:05:17.454Z,11.53
2019-03-29T18:08:08.366Z,11.49
2019-03-29T18:10:59.170Z,11.38
2019-03-29T18:13:50.052Z,11.23
2019-03-29T18:16:40.810Z,11.09
2019-03-29T18:19:31.462Z,10.94
2019-03-29T18:22:22.353Z,10.84
2019-03-29T18:25:13.280Z,10.81
2019-03-29T18:28:04.218Z,10.71
2019-03-29T18:30:55.262Z,10.62
2019-03-29T18:33:46.140Z,10.62
2019-03-29T18:36:36.841Z,10.65
2019-03-29T18:39:27.906Z,10.65
2019-03-29T18:42:19.016Z,10.66
2019-03-29T18:45:10.748Z,10.74
2019-03-29T18:48:02.125Z,10.75
2019-03-29T18:50:53.335Z,10.80
2019-03-29T18:53:44.373Z,10.86
2019-03-29T18:56:35.404Z,10.79
2019-03-29T18:59:26.216Z,10.74
2019-03-29T19:02:17.100Z,10.79
2019-03-29T19:05:10.306Z,10.81
2019-03-29T19:08:01.095Z,10.78
2019-03-29T19:10:52.070Z,10.78
2019-03-29T19:13:42.932Z,10.78
2019-03-29T19:16:33.780Z,10.84
2019-03-29T19:19:24.567Z,10.82
2019-03-29T19:22:15.526Z,10.81
2019-03-29T19:25:06.210Z,10.84
2019-03-29T19:27:57.008Z,10.93
2019-03-29T19:30:47.650Z,10.89
2019-03-29T19:33:38.623Z,10.95
2019-03-29T19:36:29.471Z,11.00
2019-03-29T19:39:20.623Z,10.97
2019-03-29T19:42:11.666Z,10.96
2019-03-29T19:45:02.409Z,10.97
2019-03-29T19:47:53.047Z,10.78
2019-03-29T19:50:43.607Z,10.78
2019-03-29T19:53:34.569Z,10.80
2019-03-29T19:56:25.389Z,10.84
2019-03-29T19:59:16.043Z,10.87
2019-03-29T20:02:07.315Z,10.84
2019-03-29T20:04:58.079Z,10.85
2019-03-29T20:07:49.139Z,10.87
2019-03-29T20:10:39.884Z,10.86
2019-03-29T20:13:30.763Z,10.80
2019-03-29T20:16:21.431Z,10.82
2019-03-29T20:19:12.324Z,10.78
2019-03-29T20:22:03.311Z,10.78
2019-03-29T20:24:54.571Z,10.80
2019-03-29T20:27:45.560Z,10.82
2019-03-29T20:30:36.548Z,10.74
2019-03-29T20:33:27.390Z,10.73
2019-03-29T20:36:22.647Z,10.78
2019-03-29T20:39:10.241Z,10.76
2019-03-29T20:42:01.410Z,10.75
2019-03-29T20:44:52.192Z,10.71
2019-03-29T20:47:43.140Z,10.70
2019-03-29T20:50:34.005Z,10.70
2019-03-29T20:53:25.433Z,10.64
2019-03-29T20:56:16.310Z,10.62
2019-03-29T20:59:07.264Z,10.64
2019-03-29T21:01:58.188Z,10.61
2019-03-29T21:04:49.107Z,10.63
2019-03-29T21:07:39.747Z,10.60
2019-03-29T21:10:31.349Z,10.60
2019-03-29T21:13:22.136Z,10.60
2019-03-29T21:16:13.622Z,10.59
2019-03-29T21:19:04.515Z,10.54
2019-03-29T21:21:55.735Z,10.54
2019-03-29T21:24:46.706Z,10.53
2019-03-29T21:27:37.758Z,10.51
2019-03-29T21:30:28.776Z,10.53
2019-03-29T21:33:19.718Z,10.49
2019-03-29T21:36:10.614Z,10.43
2019-03-29T21:39:01.571Z,10.41
2019-03-29T21:41:53.958Z,10.36
2019-03-29T21:44:45.347Z,10.36
2019-03-29T21:47:36.233Z,10.32
2019-03-29T21:50:27.159Z,10.29
2019-03-29T21:53:18.046Z,10.31
2019-03-29T21:56:08.804Z,10.29
2019-03-29T21:58:59.668Z,10.33
2019-03-29T22:01:50.358Z,10.31
2019-03-29T22:04:42.123Z,10.33
2019-03-29T22:07:33.374Z,10.33
2019-03-29T22:10:24.237Z,10.29
2019-03-29T22:13:15.328Z,10.26
2019-03-29T22:16:06.369Z,10.24
2019-03-29T22:18:57.661Z,10.24
2019-03-29T22:21:48.721Z,10.22
2019-03-29T22:24:39.724Z,10.24
2019-03-29T22:27:30.607Z,10.22
2019-03-29T22:30:21.325Z,10.10
2019-03-29T22:33:12.090Z,10.08
2019-03-29T22:36:02.792Z,10.08
2019-03-29T22:38:53.728Z,10.09
2019-03-29T22:41:44.680Z,10.14
2019-03-29T22:44:35.239Z,10.04
2019-03-29T22:47:26.509Z,10.01
2019-03-29T22:50:17.304Z,10.05
2019-03-29T22:53:08.294Z,9.99
2019-03-29T22:55:59.358Z,10.04
2019-03-29T22:58:50.266Z,10.03
2019-03-29T23:01:42.938Z,10.02
2019-03-29T23:04:33.627Z,10.03
2019-03-29T23:07:24.465Z,10.02
2019-03-29T23:10:15.683Z,10.01
2019-03-29T23:13:06.645Z,10.04
2019-03-29T23:15:57.837Z,10.02
2019-03-29T23:18:48.785Z,10.01
2019-03-29T23:21:39.646Z,10.02
2019-03-29T23:24:30.517Z,10.03
2019-03-29T23:27:21.384Z,10.00
2019-03-29T23:30:12.317Z,10.00
2019-03-29T23:33:04.117Z,9.99
2019-03-29T23:35:54.922Z,10.00
2019-03-29T23:38:45.827Z,9.93
2019-03-29T23:41:36.711Z,9.94
2019-03-29T23:44:28.715Z,9.86
2019-03-29T23:47:19.569Z,9.82
2019-03-29T23:50:11.128Z,9.74
2019-03-29T23:53:01.993Z,9.78
2019-03-29T23:55:53.906Z,9.73
2019-03-29T23:58:44.851Z,9.75
